Aeroporto :
LOGIN :

Iscrizione | Disclaimer

   EN    FR    IT 

 










Sommario :    VFR   VFR Marginale   IFR   IFR Intensivo   IFR Molto Intensivo
Visibilità : 
Base nubi : 
>= 8 km
>= 3000ft
5 / 8 km
1000 / 3000 ft
1500m / 5 km
500 / 1000 ft
800 / 1500m
200 / 500 ft
< 800m
< 200 ft
Simboli :   Temporali  Nebbia  Neve Forte  Precipitazioni Forti  Vento > 20 kt
SIGMETs :   Varie  Temporali  Ghiacco  Turbolenza  Onda orograficha  Ceneri Vulcaniche







- Altitudine del aeroporto : 1234 ft
- Codice IATA : LUX


ELLX - Luxembourg Findel

ULTIMO METAR :
  • 252350Z 20009KT 2500 BR SCT001 BKN005 07/07 Q1011 TEMPO 0800 FG

METARs OBSOLETI :
  • 252320Z 19009KT 160V230 3000 BR FEW003 BKN005 07/07 Q1010 TEMPO 0800 FG
  • 252250Z 19008KT 160V220 1500 BR SCT000 BKN002 07/07 Q1010 TEMPO 0800 FG
  • 252220Z 19008KT 1500 BR SCT000 BKN002 07/07 Q1010 TEMPO 0800 FG
  • 252150Z 15006KT 3000 BR FEW000 SCT001 07/07 Q1010 NOSIG
  • 252120Z 14005KT 4000 -RA BR FEW000 SCT001 BKN003 08/08 Q1009 NOSIG

TAF TAF ELLX
Valido dal 26 a 00 ore il 27 a 06 ore UTC


252300Z 2600/2706 21008KT 2000 -RA SCT001 BKN002
TEMPO 2600/2606 0700 FG -DZ BKN001
BECMG 2607/2609 24005KT
PROB40
TEMPO 2611/2620 SHRA SCT040TCU
ATIS : +352 4798 27300
Met : +352 4798 27010 / 27050
Nessun NOTAM noto per questo aeroporto.



MetMap, La meteo Aeronautica in un colpo d'occhio ! - Copyright ORBIFLY Dicembre 2007 - Disclaimer

ORBIFLY MET'MAP TEAM :

Programmazione e sviluppo : Alexandra Zaïnal
Concezione e sviluppo : Baudouin d'Aumeries
Co-Programmazione e sviluppo : Marc-Olivier Méhu
Supporto tecnico e logistico : Manuel Goepfert
Aiuto per la traduzione : Arnaldo La Scala

Contatto : metmap@orbifly.com




FONTI E CREDITI :

   NOAA